Flight Track Log - Related Links

Times and Time Zones

All times are in EDT time to prevent confusion due to time zone crossing. See the N45N flight status page for this flight to view local times or setup timezone preferences in your user account.

Time Position Orientation Groundspeed Altitude Reporting Facility
EDT Latitude Longitude Course Direction KTS MPH feet Rate Location/Type
Sat 11:44:00 AM 37.4500 -122.0500 160° South 153 176 1,600  Level Northern Cal TRACON
Sat 11:45:00 AM 37.4333 -122.0167 122° Southeast 140 161 2,800 700 Climbing Northern Cal TRACON
Sat 11:46:00 AM 37.4167 -122.0167 180° South 173 199 3,000 500 Climbing Northern Cal TRACON
Sat 11:47:00 AM 37.3500 -122.0000 169° South 172 198 3,800 844 Climbing Northern Cal TRACON
Sat 11:48:08 AM 37.3006 -121.9717 155° Southeast 172 198 4,800 785 Climbing Oakland Center
Sat 11:49:00 AM 37.0078 -121.7571 160° South  Level FlightAware Approximate
Sat 11:49:10 AM 37.2578 -121.9408 150° Southeast 176 203 5,500  Level Oakland Center
Sat 11:50:11 AM 37.2081 -121.9133 156° South 177 204 6,600 1,082 Climbing Oakland Center
Sat 11:51:12 AM 37.1672 -121.8919 157° South 176 203 7,700 1,024 Climbing Oakland Center
Sat 11:52:14 AM 37.1219 -121.8647 154° Southeast 180 207 8,700 927 Climbing Oakland Center
Sat 11:53:15 AM 37.0753 -121.8367 154° Southeast 187 215 9,600 984 Climbing Oakland Center
Sat 11:54:16 AM 37.0156 -121.8031 156° South 195 224 10,700 1,073 Climbing Oakland Center
Sat 11:55:18 AM 36.9672 -121.7756 156° South 192 221 11,800 927 Climbing Oakland Center
Sat 11:56:19 AM 36.9167 -121.7458 155° Southeast 200 230 12,600 590 Climbing Oakland Center
Sat 11:57:20 AM 36.8647 -121.7164 156° South 206 237 13,000 235 Climbing Oakland Center
Sat 11:58:01 AM 36.8167 -121.6833 151° Southeast 219 252 13,000  Level Northern Cal TRACON
Sat 11:59:01 AM 36.7667 -121.6500 152° Southeast 225 259 13,000  Level Northern Cal TRACON
Sat 12:00:01 PM 36.7167 -121.6333 165° South 229 264 13,000  Level Northern Cal TRACON
Sat 12:01:01 PM 36.6667 -121.5833 141° Southeast 219 252 13,000  Level Northern Cal TRACON
Sat 12:02:01 PM 36.6167 -121.5500 152° Southeast 211 243 13,000  Level Northern Cal TRACON
Sat 12:03:01 PM 36.5667 -121.5000 141° Southeast 212 244 13,000  Level Northern Cal TRACON
Sat 12:04:29 PM 36.5058 -121.4361 140° Southeast 215 247 13,000  Level Oakland Center
Sat 12:05:30 PM 36.4592 -121.3919 143° Southeast 212 244 13,000  Level Oakland Center
Sat 12:06:32 PM 36.4111 -121.3458 142° Southeast 217 250 13,000  Level Oakland Center
Sat 12:07:33 PM 36.3639 -121.2992 141° Southeast 217 250 13,000  Level Oakland Center
Sat 12:08:34 PM 36.3181 -121.2506 139° Southeast 218 251 13,000  Level Oakland Center
Sat 12:09:35 PM 36.2736 -121.1994 137° Southeast 219 252 13,000  Level Oakland Center
Sat 12:10:37 PM 36.2211 -121.1381 137° Southeast 218 251 13,000  Level Oakland Center
Sat 12:11:38 PM 36.1767 -121.0883 138° Southeast 215 247 13,000  Level Oakland Center
Sat 12:12:39 PM 36.1347 -121.0372 135° Southeast 213 245 13,000  Level Oakland Center
Sat 12:13:40 PM 36.0925 -120.9856 135° Southeast 214 246 13,000  Level Oakland Center
Sat 12:14:42 PM 36.0511 -120.9311 133° Southeast 216 249 13,000 49 Level Oakland Center
Sat 12:15:43 PM 36.0100 -120.8753 132° Southeast 218 251 13,100 49 Climbing Oakland Center
Sat 12:16:44 PM 35.9678 -120.8206 134° Southeast 221 254 13,100  Level Oakland Center
Sat 12:17:45 PM 35.9256 -120.7653 133° Southeast 221 254 13,100  Level Oakland Center
Sat 12:18:47 PM 35.8867 -120.7083 130° Southeast 219 252 13,100  Level Oakland Center
Sat 12:19:48 PM 35.8483 -120.6519 130° Southeast 216 249 13,100  Level Oakland Center
Sat 12:20:49 PM 35.8006 -120.5842 131° Southeast 217 250 13,100  Level Oakland Center
Sat 12:21:50 PM 35.7619 -120.5275 130° Southeast 217 250 13,100  Level Oakland Center
Sat 12:22:52 PM 35.7217 -120.4722 132° Southeast 216 249 13,100  Level Oakland Center
Sat 12:23:53 PM 35.6803 -120.4172 133° Southeast 218 251 13,100  Level Oakland Center
Sat 12:24:54 PM 35.6383 -120.3650 135° Southeast 216 249 13,100  Level Oakland Center
Sat 12:25:43 PM 35.6019 -120.3231 137° Southeast 216 249 13,100  Level Los Angeles Center
Sat 12:26:45 PM 35.5594 -120.2722 136° Southeast 214 246 13,100  Level Los Angeles Center
Sat 12:27:47 PM 35.5172 -120.2211 135° Southeast 213 245 13,100  Level Los Angeles Center
Sat 12:28:49 PM 35.4750 -120.1719 137° Southeast 212 244 13,100  Level Los Angeles Center
Sat 12:29:51 PM 35.4331 -120.1181 134° Southeast 211 243 13,100  Level Los Angeles Center
Sat 12:30:53 PM 35.3922 -120.0628 132° Southeast 215 247 13,100  Level Los Angeles Center
Sat 12:31:55 PM 35.3444 -120.0000 133° Southeast 212 244 13,100  Level Los Angeles Center
Sat 12:32:57 PM 35.3047 -119.9478 133° Southeast 211 243 13,100 48 Level Los Angeles Center
Sat 12:33:59 PM 35.2642 -119.8947 133° Southeast 211 243 13,200 48 Climbing Los Angeles Center
Sat 12:35:01 PM 35.2236 -119.8414 133° Southeast 213 245 13,200  Level Los Angeles Center
Sat 12:36:03 PM 35.1831 -119.7886 133° Southeast 213 245 13,200  Level Los Angeles Center
Sat 12:37:05 PM 35.1419 -119.7353 133° Southeast 214 246 13,200 -48 Level Los Angeles Center
Sat 12:38:07 PM 35.0933 -119.6728 134° Southeast 213 245 13,100 -48 Descending Los Angeles Center
Sat 12:39:09 PM 35.0536 -119.6203 133° Southeast 212 244 13,100  Level Los Angeles Center
Sat 12:40:11 PM 35.0122 -119.5694 135° Southeast 211 243 13,100  Level Los Angeles Center
Sat 12:41:13 PM 34.9664 -119.5244 141° Southeast 211 243 13,100 -240 Level Los Angeles Center
Sat 12:42:16 PM 34.9194 -119.4781 141° Southeast 215 247 12,600 -432 Descending Los Angeles Center
Sat 12:43:18 PM 34.8717 -119.4308 141° Southeast 221 254 12,200 -677 Descending Los Angeles Center
Sat 12:44:20 PM 34.8169 -119.3758 140° Southeast 214 246 11,200 -532 Descending Los Angeles Center
Sat 12:45:22 PM 34.7717 -119.3328 142° Southeast 209 241 11,100 -48 Descending Los Angeles Center
Sat 12:46:24 PM 34.7300 -119.2900 140° Southeast 200 230 11,100 -49 Level Los Angeles Center
Sat 12:47:25 PM 34.6950 -119.2561 141° Southeast 199 229 11,000 -242 Descending Los Angeles Center
Sat 12:48:28 PM 34.6419 -119.2031 141° Southeast 205 236 10,600 -384 Descending Los Angeles Center
Sat 12:49:30 PM 34.5942 -119.1503 138° Southeast 206 237 10,200 -242 Descending Los Angeles Center
Sat 12:50:32 PM 34.5517 -119.1019 137° Southeast 210 242 10,100 -48 Descending Los Angeles Center
Sat 12:51:34 PM 34.5119 -119.0567 137° Southeast 199 229 10,100 -97 Level Los Angeles Center
Sat 12:52:36 PM 34.4764 -119.0061 130° Southeast 196 226 9,900 -290 Descending Los Angeles Center
Sat 12:53:38 PM 34.4489 -118.9456 119° Southeast 204 235 9,500 -387 Descending Los Angeles Center
Sat 12:54:40 PM 34.4217 -118.8700 114° Southeast 203 234 9,100 -242 Descending Los Angeles Center
Sat 12:55:42 PM 34.3950 -118.8131 120° Southeast 195 224 9,000 -48 Descending Los Angeles Center
Sat 12:56:45 PM 34.3639 -118.7586 125° Southeast 196 226 9,000  Level Los Angeles Center
Sat 12:57:46 PM 34.3308 -118.7058 127° Southeast 197 227 9,000  Level Los Angeles Center
Sat 12:58:48 PM 34.2986 -118.6503 125° Southeast 200 230 9,000  Level Los Angeles Center
Sat 12:59:50 PM 34.2658 -118.5961 126° Southeast 200 230 9,000  Level Los Angeles Center
Sat 01:00:58 PM 34.2167 -118.5167 127° Southeast 198 228 9,000  Level Southern California TRACON
Sat 01:01:58 PM 34.1833 -118.4667 129° Southeast 199 229 9,000  Level Southern California TRACON
Sat 01:02:58 PM 34.1833 -118.4000 90° East 192 221 9,000  Level Southern California TRACON
Sat 01:03:59 PM 34.1500 -118.3500 129° Southeast 201 231 9,000  Level Southern California TRACON
Sat 01:05:01 PM 34.1075 -118.3222 152° Southeast 200 230 9,000  Level Los Angeles Center
Sat 01:06:03 PM 34.0606 -118.2853 147° Southeast 201 231 9,000  Level Los Angeles Center
Sat 01:07:05 PM 34.0047 -118.2403 146° Southeast 199 229 9,000  Level Los Angeles Center
Sat 01:08:07 PM 33.9578 -118.2033 147° Southeast 201 231 9,000 -435 Level Los Angeles Center
Sat 01:09:09 PM 33.8989 -118.2033 180° South 211 243 8,100 -968 Descending Los Angeles Center
Sat 01:10:11 PM 33.8397 -118.2203 193° South 214 246 7,000 -1,306 Descending Los Angeles Center
Sat 01:11:13 PM 33.7831 -118.2353 192° South 211 243 5,400 -1,306 Descending Los Angeles Center
Sat 01:12:15 PM 33.7314 -118.2206 167° South 202 232 4,300 -919 Descending Los Angeles Center
Sat 01:13:17 PM 33.6803 -118.2272 186° South 191 220 3,500 -629 Descending Los Angeles Center
Sat 01:14:19 PM 33.6381 -118.2256 178° South 177 204 3,000 -194 Descending Los Angeles Center
Sat 01:15:21 PM 33.6250 -118.1806 109° East 167 192 3,100 48 Climbing Los Angeles Center
Sat 01:16:24 PM 33.6486 -118.1389 56° Northeast 156 180 3,100 -60 Level Los Angeles Center
Sat 01:17:01 PM 33.6667 -118.1167 46° Northeast 153 176 3,000 -309 Descending Southern California TRACON
Sat 01:18:01 PM 33.7000 -118.0833 40° Northeast 161 185 2,600 -450 Descending Southern California TRACON
Sat 01:19:01 PM 33.7333 -118.0667 23° Northeast 162 186 2,100 -397 Descending Southern California TRACON
Sat 01:20:02 PM 33.7667 -118.0167 51° Northeast 142 163 1,800 -397 Descending Southern California TRACON
Sat 01:21:02 PM 33.7833 -118.0000 40° Northeast 147 169 1,300 -714 Descending Southern California TRACON
Sat 01:22:08 PM 33.8000 -118.0333 301° West 177 204 300 -909 Descending Southern California TRACON

Login

Don't have an account? Register now (free) for customized features, flight alerts, and more!